createdAt,value
2018-06-02T00:02:07.304Z,97028.85
2018-06-02T00:05:32.315Z,97027.67
2018-06-02T00:08:57.803Z,97029.94
2018-06-02T00:12:23.173Z,97018.28
2018-06-02T00:15:47.656Z,97021.90
2018-06-02T00:19:11.051Z,97018.80
2018-06-02T00:22:34.443Z,97017.28
2018-06-02T00:25:59.997Z,97017.48
2018-06-02T00:29:23.464Z,97018.56
2018-06-02T00:32:47.007Z,97015.61
2018-06-02T00:36:10.418Z,97018.55
2018-06-02T00:39:35.954Z,97008.91
2018-06-02T00:43:00.825Z,97011.38
2018-06-02T00:46:24.898Z,97010.91
2018-06-02T00:49:48.333Z,97009.97
2018-06-02T00:53:11.999Z,97015.61
2018-06-02T00:56:37.355Z,97009.56
2018-06-02T01:00:00.789Z,97010.74
2018-06-02T01:03:24.249Z,97021.02
2018-06-02T01:06:47.753Z,97025.78
2018-06-02T01:10:11.146Z,97016.47
2018-06-02T01:13:34.658Z,97013.11
2018-06-02T01:16:58.058Z,97009.51
2018-06-02T01:20:21.602Z,97014.14
2018-06-02T01:23:45.471Z,97012.48
2018-06-02T01:27:10.537Z,97012.45
2018-06-02T01:30:33.975Z,97012.02
2018-06-02T01:33:57.460Z,97013.59
2018-06-02T01:37:20.955Z,97008.66
2018-06-02T01:40:44.492Z,97012.13
2018-06-02T01:44:07.947Z,97012.59
2018-06-02T01:47:31.366Z,97018.44
2018-06-02T01:50:56.882Z,97021.81
2018-06-02T01:54:20.353Z,97016.08
2018-06-02T01:57:43.835Z,97019.86
2018-06-02T02:01:07.287Z,97021.23
2018-06-02T02:04:32.712Z,97014.80
2018-06-02T02:07:56.155Z,97016.61
2018-06-02T02:11:19.590Z,97016.09
2018-06-02T02:14:43.049Z,97014.56
2018-06-02T02:18:06.508Z,97011.27
2018-06-02T02:21:31.354Z,97010.73
2018-06-02T02:24:55.408Z,97014.52
2018-06-02T02:28:18.910Z,97009.90
2018-06-02T02:31:42.332Z,97012.77
2018-06-02T02:35:05.765Z,97013.20
2018-06-02T02:38:29.178Z,97010.78
2018-06-02T02:41:54.682Z,97009.55
2018-06-02T02:45:18.195Z,97007.23
2018-06-02T02:48:41.791Z,97009.91
2018-06-02T02:52:05.111Z,97000.66
2018-06-02T02:55:30.666Z,97001.86
2018-06-02T02:58:54.190Z,97002.55
2018-06-02T03:02:19.790Z,97004.02
2018-06-02T03:05:43.254Z,97005.86
2018-06-02T03:09:06.625Z,97009.55
2018-06-02T03:12:30.092Z,97011.80
2018-06-02T03:15:53.806Z,97020.16
2018-06-02T03:19:17.160Z,97020.44
2018-06-02T03:22:40.613Z,97022.88
2018-06-02T03:26:06.097Z,97024.47
2018-06-02T03:29:29.528Z,97019.47
2018-06-02T03:32:52.956Z,97030.41
2018-06-02T03:36:16.544Z,97029.59
2018-06-02T03:39:39.924Z,97032.73
2018-06-02T03:43:03.275Z,97034.78
2018-06-02T03:46:28.814Z,97034.64
2018-06-02T03:49:54.437Z,97022.53
2018-06-02T03:53:17.857Z,97027.52
2018-06-02T03:56:41.296Z,97027.22
2018-06-02T04:00:04.754Z,97030.79
2018-06-02T04:03:28.218Z,97039.67
2018-06-02T04:06:53.910Z,97035.67
2018-06-02T04:10:17.279Z,97039.54
2018-06-02T04:13:40.731Z,97040.74
2018-06-02T04:17:04.223Z,97043.81
2018-06-02T04:20:27.692Z,97041.23
2018-06-02T04:23:51.171Z,97039.81
2018-06-02T04:27:16.718Z,97042.53
2018-06-02T04:30:40.141Z,97043.00
2018-06-02T04:34:03.520Z,97046.68
2018-06-02T04:37:26.938Z,97037.08
2018-06-02T04:40:50.432Z,97042.20
2018-06-02T04:44:15.976Z,97041.66
2018-06-02T04:47:39.465Z,97046.60
2018-06-02T04:51:02.879Z,97050.02
2018-06-02T04:54:26.264Z,97045.08
2018-06-02T04:57:52.243Z,97044.22
2018-06-02T05:01:18.784Z,97044.53
2018-06-02T05:04:42.216Z,97042.98
2018-06-02T05:08:06.242Z,97040.38
2018-06-02T05:11:31.799Z,97044.71
2018-06-02T05:14:55.391Z,97046.42
2018-06-02T05:18:20.733Z,97044.36
2018-06-02T05:21:44.187Z,97039.96
2018-06-02T05:25:09.720Z,97035.98
2018-06-02T05:28:33.398Z,97037.67
2018-06-02T05:31:56.664Z,97038.14
2018-06-02T05:35:20.121Z,97046.03
2018-06-02T05:38:45.866Z,97046.45
2018-06-02T05:42:11.179Z,97046.64
2018-06-02T05:45:34.600Z,97054.07
2018-06-02T05:49:00.632Z,97054.11
2018-06-02T05:52:25.638Z,97039.59
2018-06-02T05:55:49.125Z,97041.36
2018-06-02T05:59:12.591Z,97034.47
2018-06-02T06:02:37.467Z,97034.61
2018-06-02T06:06:01.497Z,97035.70
2018-06-02T06:09:25.636Z,97034.77
2018-06-02T06:12:49.211Z,97036.91
2018-06-02T06:16:14.904Z,97032.50
2018-06-02T06:19:38.299Z,97031.64
2018-06-02T06:23:02.083Z,97034.86
2018-06-02T06:26:27.610Z,97038.52
2018-06-02T06:29:52.864Z,97030.86
2018-06-02T06:33:16.468Z,97033.81
2018-06-02T06:36:40.038Z,97035.34
2018-06-02T06:40:05.217Z,97033.80
2018-06-02T06:43:29.508Z,97033.19
2018-06-02T06:46:53.045Z,97039.56
2018-06-02T06:50:16.538Z,97036.28
2018-06-02T06:53:40.053Z,97040.61
2018-06-02T06:57:03.764Z,97039.73
2018-06-02T07:00:29.151Z,97041.33
2018-06-02T07:03:52.663Z,97040.00
2018-06-02T07:07:16.007Z,97045.43
2018-06-02T07:10:39.668Z,97045.72
2018-06-02T07:14:03.659Z,97042.59
2018-06-02T07:17:26.968Z,97036.87
2018-06-02T07:20:53.759Z,97035.28
2018-06-02T07:24:21.484Z,97032.20
2018-06-02T07:27:46.137Z,97036.87
2018-06-02T07:31:09.582Z,97034.77
2018-06-02T07:34:33.092Z,97029.80
2018-06-02T07:37:56.906Z,97035.52
2018-06-02T07:41:22.916Z,97036.11
2018-06-02T07:44:47.966Z,97040.31
2018-06-02T07:48:11.471Z,97036.05
2018-06-02T07:51:35.016Z,97040.48
2018-06-02T07:54:58.684Z,97039.89
2018-06-02T07:58:25.425Z,97041.66
2018-06-02T08:01:50.510Z,97042.36
2018-06-02T08:05:42.438Z,97044.14
2018-06-02T08:09:06.509Z,97041.19
2018-06-02T08:12:29.945Z,97036.84
2018-06-02T08:15:53.816Z,97036.16
2018-06-02T08:19:18.315Z,97031.84
2018-06-02T08:22:43.722Z,97026.44
2018-06-02T08:26:09.479Z,97028.56
2018-06-02T08:29:35.113Z,97032.58
2018-06-02T08:32:58.619Z,97029.00
2018-06-02T08:36:22.316Z,97026.25
2018-06-02T08:39:48.313Z,97021.87
2018-06-02T08:43:13.509Z,97024.72
2018-06-02T08:46:36.826Z,97017.30
2018-06-02T08:50:00.217Z,97018.38
2018-06-02T08:53:23.688Z,97021.77
2018-06-02T08:56:47.074Z,97012.13
2018-06-02T09:00:10.512Z,97016.81
2018-06-02T09:03:33.969Z,97017.33
2018-06-02T09:06:57.404Z,97025.31
2018-06-02T09:10:20.922Z,97019.73
2018-06-02T09:13:46.906Z,97032.47
2018-06-02T09:17:12.116Z,97020.68
2018-06-02T09:20:35.819Z,97026.41
2018-06-02T09:24:01.639Z,97014.42
2018-06-02T09:27:25.194Z,97025.41
2018-06-02T09:30:48.686Z,97020.14
2018-06-02T09:34:12.127Z,97014.49
2018-06-02T09:37:35.821Z,97016.16
2018-06-02T09:41:01.216Z,97011.92
2018-06-02T09:44:26.769Z,97015.54
2018-06-02T09:47:50.193Z,97010.11
2018-06-02T09:51:15.990Z,97010.88
2018-06-02T09:54:41.728Z,97012.67
2018-06-02T09:58:05.345Z,97012.09
2018-06-02T10:01:29.438Z,97012.95
2018-06-02T10:04:52.972Z,97006.28
2018-06-02T10:08:18.663Z,97006.66
2018-06-02T10:11:42.228Z,97005.83
2018-06-02T10:15:06.764Z,97004.92
2018-06-02T10:18:30.239Z,97000.69
2018-06-02T10:21:53.700Z,96991.47
2018-06-02T10:25:17.337Z,96993.26
2018-06-02T10:28:41.499Z,96997.02
2018-06-02T10:32:05.296Z,96997.93
2018-06-02T10:35:28.661Z,96993.16
2018-06-02T10:38:52.172Z,96994.05
2018-06-02T10:42:15.602Z,96986.81
2018-06-02T10:45:39.013Z,96985.25
2018-06-02T10:49:02.430Z,96978.19
2018-06-02T10:52:26.024Z,96984.05
2018-06-02T10:55:51.592Z,96972.90
2018-06-02T10:59:15.273Z,96978.34
2018-06-02T11:02:38.768Z,96967.13
2018-06-02T11:06:03.952Z,96964.98
2018-06-02T11:09:29.532Z,96957.38
2018-06-02T11:12:52.965Z,96953.38
2018-06-02T11:16:16.406Z,96956.62
2018-06-02T11:19:39.900Z,96950.64
2018-06-02T11:23:03.415Z,96947.63
2018-06-02T11:26:27.119Z,96940.02
2018-06-02T11:29:52.410Z,96932.69
2018-06-02T11:33:15.983Z,96933.04
2018-06-02T11:36:39.351Z,96929.04
2018-06-02T11:40:02.811Z,96926.05
2018-06-02T11:43:26.352Z,96918.52
2018-06-02T11:46:49.808Z,96906.11
2018-06-02T11:50:13.213Z,96902.44
2018-06-02T11:53:36.724Z,96903.45
2018-06-02T11:57:02.483Z,96896.31
2018-06-02T12:00:31.655Z,96896.52
2018-06-02T12:03:55.722Z,96890.91
2018-06-02T12:07:21.177Z,96893.72
2018-06-02T12:10:44.587Z,96884.06
2018-06-02T12:14:10.432Z,96879.59
2018-06-02T12:17:34.001Z,96878.09
2018-06-02T12:20:57.606Z,96868.44
2018-06-02T12:24:22.972Z,96864.24
2018-06-02T12:27:46.501Z,96861.78
2018-06-02T12:31:09.948Z,96855.91
2018-06-02T12:34:33.429Z,96847.74
2018-06-02T12:37:56.990Z,96844.05
2018-06-02T12:41:20.343Z,96848.69
2018-06-02T12:44:45.850Z,96837.92
2018-06-02T12:48:12.704Z,96833.02
2018-06-02T12:51:36.973Z,96837.75
2018-06-02T12:55:00.338Z,96842.75
2018-06-02T12:58:23.785Z,96835.27
2018-06-02T13:01:47.456Z,96832.29
2018-06-02T13:05:10.795Z,96823.27
2018-06-02T13:08:34.480Z,96820.57
2018-06-02T13:11:57.832Z,96827.06
2018-06-02T13:15:21.265Z,96825.90
2018-06-02T13:18:44.731Z,96826.22
2018-06-02T13:22:08.179Z,96808.50
2018-06-02T13:25:31.694Z,96803.58
2018-06-02T13:28:55.316Z,96799.09
2018-06-02T13:32:18.923Z,96798.48
2018-06-02T13:35:42.427Z,96785.98
2018-06-02T13:39:09.216Z,96782.61
2018-06-02T13:42:33.820Z,96789.72
2018-06-02T13:45:59.919Z,96785.57
2018-06-02T13:49:25.180Z,96787.89
2018-06-02T13:52:50.657Z,96788.86
2018-06-02T13:56:24.174Z,96786.02
2018-06-02T13:59:50.027Z,96783.58
2018-06-02T14:03:13.653Z,96772.30
2018-06-02T14:06:37.167Z,96767.45
2018-06-02T14:10:02.591Z,96770.56
2018-06-02T14:13:26.055Z,96775.00
2018-06-02T14:16:50.955Z,96767.70
2018-06-02T14:20:15.097Z,96759.09
2018-06-02T14:23:38.966Z,96767.08
2018-06-02T14:27:02.364Z,96767.27
2018-06-02T14:30:25.775Z,96765.06
2018-06-02T14:33:49.222Z,96759.30
2018-06-02T14:37:12.781Z,96756.13
2018-06-02T14:40:36.197Z,96764.27
2018-06-02T14:44:01.832Z,96750.28
2018-06-02T14:47:25.286Z,96758.07
2018-06-02T14:50:50.764Z,96755.02
2018-06-02T15:03:34.409Z,96741.27
2018-06-02T15:06:58.943Z,96735.49
2018-06-02T15:10:23.588Z,96739.61
2018-06-02T15:13:49.085Z,96742.95
2018-06-02T15:17:12.601Z,96744.48
2018-06-02T15:20:35.931Z,96734.63
2018-06-02T15:23:59.366Z,96736.23
2018-06-02T15:27:22.820Z,96722.83
2018-06-02T15:30:49.284Z,96720.48
2018-06-02T15:34:14.054Z,96725.61
2018-06-02T15:37:37.384Z,96723.73
2018-06-02T15:41:00.903Z,96723.22
2018-06-02T15:44:24.954Z,96720.52
2018-06-02T15:47:50.351Z,96710.59
2018-06-02T15:51:15.665Z,96713.76
2018-06-02T15:54:39.031Z,96713.89
2018-06-02T15:58:02.484Z,96719.59
2018-06-02T16:01:25.922Z,96717.55
2018-06-02T16:04:51.495Z,96719.25
2018-06-02T16:08:15.132Z,96717.81
2018-06-02T16:11:38.502Z,96707.27
2018-06-02T16:15:02.094Z,96707.30
2018-06-02T16:18:25.483Z,96713.56
2018-06-02T16:21:48.940Z,96711.38
2018-06-02T16:25:12.496Z,96705.84
2018-06-02T16:28:35.925Z,96712.88
2018-06-02T16:32:02.860Z,96705.95
2018-06-02T16:35:26.523Z,96700.98
2018-06-02T16:38:50.851Z,96703.79
2018-06-02T16:42:14.285Z,96705.45
2018-06-02T16:45:38.393Z,96702.30
2018-06-02T16:49:02.465Z,96705.47
2018-06-02T16:52:27.354Z,96698.79
2018-06-02T16:55:52.244Z,96699.23
2018-06-02T16:59:16.245Z,96700.37
2018-06-02T17:02:39.556Z,96695.91
2018-06-02T17:06:02.956Z,96695.05
2018-06-02T17:09:27.941Z,96694.43
2018-06-02T17:12:51.995Z,96700.27
2018-06-02T17:16:15.640Z,96695.34
2018-06-02T17:19:41.111Z,96700.31
2018-06-02T17:23:08.066Z,96703.55
2018-06-02T17:26:32.352Z,96698.20
2018-06-02T17:29:55.688Z,96704.03
2018-06-02T17:33:19.603Z,96706.48
2018-06-02T17:36:44.840Z,96701.73
2018-06-02T17:40:08.420Z,96709.09
2018-06-02T17:43:31.808Z,96708.26
2018-06-02T17:46:55.293Z,96714.34
2018-06-02T17:50:18.672Z,96714.64
2018-06-02T17:53:42.240Z,96718.44
2018-06-02T17:57:05.856Z,96720.02
2018-06-02T18:00:29.235Z,96714.98
2018-06-02T18:03:52.652Z,96726.49
2018-06-02T18:07:16.243Z,96722.98
2018-06-02T18:11:12.546Z,96729.50
2018-06-02T18:14:38.094Z,96731.86
2018-06-02T18:18:03.666Z,96736.25
2018-06-02T18:21:29.832Z,96745.22
2018-06-02T18:24:55.205Z,96734.52
2018-06-02T18:28:22.205Z,96736.81
2018-06-02T18:31:48.261Z,96736.87
2018-06-02T18:35:14.198Z,96733.03
2018-06-02T18:38:41.044Z,96732.08
2018-06-02T18:42:06.795Z,96726.41
2018-06-02T18:45:32.602Z,96730.19
2018-06-02T18:48:59.353Z,96734.86
2018-06-02T18:52:25.012Z,96733.27
2018-06-02T18:55:50.140Z,96731.84
2018-06-02T18:59:15.259Z,96736.21
2018-06-02T19:02:44.515Z,96734.80
2018-06-02T19:06:11.326Z,96745.34
2018-06-02T19:09:38.286Z,96744.78
2018-06-02T19:13:03.503Z,96753.67
2018-06-02T19:16:31.594Z,96760.77
2018-06-02T19:19:56.642Z,96764.38
2018-06-02T19:23:22.451Z,96767.47
2018-06-02T19:26:48.056Z,96768.93
2018-06-02T19:30:13.774Z,96774.49
2018-06-02T19:33:39.095Z,96778.45
2018-06-02T19:37:04.024Z,96784.66
2018-06-02T19:40:28.797Z,96782.61
2018-06-02T19:43:54.154Z,96787.96
2018-06-02T19:47:19.296Z,96788.41
2018-06-02T19:50:45.801Z,96786.27
2018-06-02T19:54:10.260Z,96786.92
2018-06-02T19:57:35.807Z,96787.34
2018-06-02T20:01:00.895Z,96799.34
2018-06-02T20:04:25.737Z,96799.06
2018-06-02T20:07:50.358Z,96804.02
2018-06-02T20:11:15.266Z,96810.61
2018-06-02T20:14:40.273Z,96809.97
2018-06-02T20:18:05.096Z,96814.20
2018-06-02T20:21:29.883Z,96820.03
2018-06-02T20:24:54.658Z,96819.62
2018-06-02T20:28:19.548Z,96826.33
2018-06-02T20:31:44.486Z,96821.33
2018-06-02T20:35:09.129Z,96829.52
2018-06-02T20:38:33.968Z,96829.81
2018-06-02T20:41:58.788Z,96824.13
2018-06-02T20:45:23.705Z,96825.00
2018-06-02T20:48:48.417Z,96815.53
2018-06-02T20:52:13.190Z,96821.68
2018-06-02T20:55:38.071Z,96825.06
2018-06-02T20:59:02.769Z,96824.19
2018-06-02T21:02:27.254Z,96829.53
2018-06-02T21:05:51.677Z,96827.72
2018-06-02T21:09:16.504Z,96833.33
2018-06-02T21:12:40.964Z,96834.44
2018-06-02T21:16:05.882Z,96843.11
2018-06-02T21:19:31.008Z,96838.39
2018-06-02T21:22:55.789Z,96838.11
2018-06-02T21:26:20.552Z,96836.89
2018-06-02T21:29:48.988Z,96829.85
2018-06-02T21:33:13.894Z,96833.84
2018-06-02T21:36:38.697Z,96837.53
2018-06-02T21:40:04.210Z,96842.06
2018-06-02T21:43:29.515Z,96839.38
2018-06-02T21:46:54.492Z,96841.84
2018-06-02T21:50:19.252Z,96845.58
2018-06-02T21:53:44.421Z,96843.37
2018-06-02T21:57:09.125Z,96847.59
2018-06-02T22:00:33.823Z,96843.92
2018-06-02T22:03:58.517Z,96838.03
2018-06-02T22:07:23.321Z,96843.24
2018-06-02T22:10:48.139Z,96847.50
2018-06-02T22:14:12.960Z,96843.45
2018-06-02T22:17:37.318Z,96846.08
2018-06-02T22:21:02.100Z,96843.24
2018-06-02T22:24:26.758Z,96844.13
2018-06-02T22:27:51.473Z,96838.90
2018-06-02T22:31:16.188Z,96837.22
2018-06-02T22:34:41.723Z,96837.87
2018-06-02T22:38:06.445Z,96837.87
2018-06-02T22:41:31.284Z,96829.80
2018-06-02T22:44:56.065Z,96832.88
2018-06-02T22:48:21.518Z,96839.01
2018-06-02T22:51:58.393Z,96828.82
2018-06-02T22:55:23.333Z,96842.14
2018-06-02T22:58:48.555Z,96839.95
2018-06-02T23:02:14.560Z,96838.80
2018-06-02T23:05:39.437Z,96835.02
2018-06-02T23:09:05.127Z,96838.65
2018-06-02T23:12:29.939Z,96837.01
2018-06-02T23:15:54.680Z,96833.82
2018-06-02T23:19:19.476Z,96836.92
2018-06-02T23:22:44.175Z,96839.34
2018-06-02T23:26:10.027Z,96849.64
2018-06-02T23:29:34.832Z,96841.85
2018-06-02T23:32:59.536Z,96842.30
2018-06-02T23:36:24.238Z,96838.62
2018-06-02T23:39:48.968Z,96841.09
2018-06-02T23:43:13.645Z,96837.86
2018-06-02T23:46:38.358Z,96841.91
2018-06-02T23:50:03.067Z,96842.81
2018-06-02T23:53:27.802Z,96846.75
2018-06-02T23:56:52.566Z,96847.16
